Time;durP1;ratioP1;P1;durP2;ratioP2;P2;SDS_P1;SDS_P2;PMS_P1;PMS_P2;Temp;Humidity;BMP_temperature;BMP_pressure;BME280_temperature;BME280_humidity;BME280_pressure;Samples;Min_cycle;Max_cycle;Signal;HPM_P1;HPM_P2
2021/10/27 00:01:20;;;;;;;69.17;33.90;;;;;;;;;;4431496;32;20657;-53
2021/10/27 00:03:45;;;;;;;68.70;35.40;;;;;;;;;;4432314;32;20209;-52
2021/10/27 00:06:11;;;;;;;85.17;36.47;;;;;;;;;;4432368;32;20711;-53
2021/10/27 00:08:36;;;;;;;68.63;33.37;;;;;;;;;;4432514;32;20758;-53
2021/10/27 00:11:02;;;;;;;54.23;28.10;;;;;;;;;;4435675;32;20343;-53
2021/10/27 00:13:28;;;;;;;56.00;27.30;;;;;;;;;;4435091;32;20318;-54
2021/10/27 00:15:53;;;;;;;45.60;24.03;;;;;;;;;;4435010;32;20276;-53
2021/10/27 00:18:19;;;;;;;42.63;24.03;;;;;;;;;;4435174;32;20371;-52
2021/10/27 00:20:44;;;;;;;45.93;23.87;;;;;;;;;;4435085;32;20309;-52
2021/10/27 00:23:10;;;;;;;38.63;22.63;;;;;;;;;;4435261;32;20731;-52
2021/10/27 00:25:35;;;;;;;40.60;23.40;;;;;;;;;;4434641;32;20321;-53
2021/10/27 00:28:01;;;;;;;38.53;19.47;;;;;;;;;;4435273;32;20594;-52
2021/10/27 00:30:27;;;;;;;36.43;21.77;;;;;;;;;;4434441;32;20314;-51
2021/10/27 00:32:53;;;;;;;36.40;19.73;;;;;;;;;;4434944;32;20220;-53
2021/10/27 00:35:18;;;;;;;35.07;19.97;;;;;;;;;;4434308;32;20268;-52
2021/10/27 00:37:44;;;;;;;43.43;21.60;;;;;;;;;;4434985;32;20347;-52
2021/10/27 00:40:10;;;;;;;34.33;20.67;;;;;;;;;;4434698;32;20699;-52
2021/10/27 00:42:35;;;;;;;37.20;20.07;;;;;;;;;;4434723;32;20248;-53
2021/10/27 00:45:01;;;;;;;36.10;19.63;;;;;;;;;;4434512;32;20756;-53
2021/10/27 00:47:27;;;;;;;33.77;19.83;;;;;;;;;;4434777;32;20689;-53
2021/10/27 00:49:53;;;;;;;32.67;20.47;;;;;;;;;;4434671;32;20740;-53
2021/10/27 00:52:19;;;;;;;36.43;21.80;;;;;;;;;;4434649;32;20252;-53
2021/10/27 00:54:47;;;;;;;54.40;26.13;;;;;;;;;;4434382;32;20672;-54
2021/10/27 00:57:15;;;;;;;68.23;34.23;;;;;;;;;;4434869;32;20221;-54
2021/10/27 00:59:43;;;;;;;64.23;36.03;;;;;;;;;;4434510;32;20229;-52
2021/10/27 01:02:10;;;;;;;55.57;28.73;;;;;;;;;;4433943;32;20633;-53
2021/10/27 01:04:36;;;;;;;52.70;28.33;;;;;;;;;;4434233;32;20660;-55
2021/10/27 01:07:01;;;;;;;52.10;28.87;;;;;;;;;;4434767;32;20264;-53
2021/10/27 01:09:27;;;;;;;40.70;24.53;;;;;;;;;;4434356;32;20325;-54
2021/10/27 01:11:52;;;;;;;48.50;27.57;;;;;;;;;;4434613;32;20743;-53
2021/10/27 01:14:18;;;;;;;45.43;26.97;;;;;;;;;;4434249;32;20288;-52
2021/10/27 01:16:48;;;;;;;52.60;27.73;;;;;;;;;;4434035;32;20248;-53
2021/10/27 01:19:14;;;;;;;56.63;28.13;;;;;;;;;;4434137;32;20287;-53
2021/10/27 01:21:42;;;;;;;48.43;27.77;;;;;;;;;;4433856;32;20209;-54
2021/10/27 01:24:08;;;;;;;48.93;27.80;;;;;;;;;;4434282;32;20235;-53
2021/10/27 01:26:34;;;;;;;55.27;26.57;;;;;;;;;;4433403;32;20367;-54
2021/10/27 01:28:59;;;;;;;61.13;29.13;;;;;;;;;;4419649;32;20704;-55
2021/10/27 01:31:25;;;;;;;53.07;29.23;;;;;;;;;;4434008;32;20964;-53
2021/10/27 01:33:51;;;;;;;52.07;28.47;;;;;;;;;;4434467;32;20264;-54
2021/10/27 01:36:18;;;;;;;54.30;28.57;;;;;;;;;;4433759;32;20320;-53
2021/10/27 01:38:45;;;;;;;75.17;32.80;;;;;;;;;;4433996;32;20368;-54
2021/10/27 01:41:12;;;;;;;57.47;31.30;;;;;;;;;;4433684;32;20396;-53
2021/10/27 01:43:52;;;;;;;54.40;27.87;;;;;;;;;;4434131;32;20265;-54
2021/10/27 01:46:25;;;;;;;41.40;24.80;;;;;;;;;;4433676;32;20209;-52
2021/10/27 01:48:51;;;;;;;40.70;23.47;;;;;;;;;;4434260;32;20669;-53
2021/10/27 01:51:16;;;;;;;44.57;22.20;;;;;;;;;;4433663;32;20238;-53
2021/10/27 01:53:42;;;;;;;36.77;20.80;;;;;;;;;;4434125;32;20747;-52
2021/10/27 01:56:07;;;;;;;30.40;16.10;;;;;;;;;;4432552;32;20613;-53
2021/10/27 01:58:33;;;;;;;30.23;15.20;;;;;;;;;;4433683;32;20751;-54
2021/10/27 02:00:59;;;;;;;26.37;16.33;;;;;;;;;;4432984;32;20291;-53
2021/10/27 02:03:24;;;;;;;24.97;16.33;;;;;;;;;;4433565;32;20216;-52
2021/10/27 02:05:49;;;;;;;31.90;16.27;;;;;;;;;;4433884;32;20398;-52
2021/10/27 02:08:15;;;;;;;31.90;15.93;;;;;;;;;;4433362;32;20292;-51
2021/10/27 02:10:41;;;;;;;31.43;16.03;;;;;;;;;;4433551;32;20300;-52
2021/10/27 02:13:06;;;;;;;36.27;20.70;;;;;;;;;;4433685;32;20274;-52
2021/10/27 02:15:32;;;;;;;38.23;18.93;;;;;;;;;;4433259;32;20355;-51
2021/10/27 02:17:57;;;;;;;36.37;20.30;;;;;;;;;;4433223;32;20224;-52
2021/10/27 02:20:23;;;;;;;46.80;22.07;;;;;;;;;;4433355;32;20413;-51
2021/10/27 02:22:48;;;;;;;35.80;19.87;;;;;;;;;;4433717;32;20257;-51
2021/10/27 02:25:14;;;;;;;34.30;19.40;;;;;;;;;;4433253;32;20649;-51
2021/10/27 02:27:40;;;;;;;42.90;22.83;;;;;;;;;;4425619;32;20302;-52
2021/10/27 02:30:05;;;;;;;39.47;20.97;;;;;;;;;;4428847;32;20757;-53
2021/10/27 02:32:31;;;;;;;42.67;22.07;;;;;;;;;;4433112;32;20320;-52
2021/10/27 02:34:56;;;;;;;44.53;24.77;;;;;;;;;;4433276;32;20347;-53
2021/10/27 02:37:22;;;;;;;43.67;20.87;;;;;;;;;;4433377;32;20304;-53
2021/10/27 02:39:47;;;;;;;44.03;21.13;;;;;;;;;;4432878;32;20600;-53
2021/10/27 02:42:13;;;;;;;39.60;21.47;;;;;;;;;;4433468;32;20288;-53
2021/10/27 02:44:38;;;;;;;47.57;24.07;;;;;;;;;;4432955;32;20378;-53
2021/10/27 02:47:04;;;;;;;46.67;25.57;;;;;;;;;;4433674;32;20246;-53
2021/10/27 02:49:29;;;;;;;57.50;28.43;;;;;;;;;;4432478;32;20374;-52
2021/10/27 02:51:55;;;;;;;46.03;25.83;;;;;;;;;;4433422;32;20252;-53
2021/10/27 02:54:20;;;;;;;46.70;27.40;;;;;;;;;;4433018;32;20304;-52
2021/10/27 02:56:46;;;;;;;52.60;28.33;;;;;;;;;;4433579;32;20327;-53
2021/10/27 02:59:12;;;;;;;64.30;31.27;;;;;;;;;;4432760;32;20578;-52
2021/10/27 03:01:37;;;;;;;43.20;26.43;;;;;;;;;;4432311;32;20712;-52
2021/10/27 03:04:03;;;;;;;50.13;24.50;;;;;;;;;;4433376;32;20637;-53
2021/10/27 03:06:28;;;;;;;38.47;24.33;;;;;;;;;;4432875;32;20216;-52
2021/10/27 03:08:54;;;;;;;46.23;24.97;;;;;;;;;;4432941;32;20291;-53
2021/10/27 03:11:20;;;;;;;37.73;21.50;;;;;;;;;;4432891;32;20603;-52
2021/10/27 03:13:45;;;;;;;51.90;22.87;;;;;;;;;;4433169;32;20300;-52
2021/10/27 03:16:10;;;;;;;45.63;22.20;;;;;;;;;;4432946;32;20477;-52
2021/10/27 03:18:36;;;;;;;41.07;20.10;;;;;;;;;;4432891;32;20288;-53
2021/10/27 03:21:01;;;;;;;25.67;16.67;;;;;;;;;;4432371;32;20284;-52
2021/10/27 03:23:27;;;;;;;24.83;16.70;;;;;;;;;;4432888;32;20341;-52
2021/10/27 03:25:53;;;;;;;23.30;16.43;;;;;;;;;;4432765;32;20422;-53
2021/10/27 03:28:18;;;;;;;30.50;17.07;;;;;;;;;;4421324;32;20315;-54
2021/10/27 03:30:44;;;;;;;23.10;15.87;;;;;;;;;;4430403;32;20261;-52
2021/10/27 03:33:09;;;;;;;32.07;17.07;;;;;;;;;;4430788;32;20295;-51
2021/10/27 03:35:35;;;;;;;36.20;21.93;;;;;;;;;;4432675;32;20276;-52
2021/10/27 03:38:01;;;;;;;46.73;23.30;;;;;;;;;;4432913;32;20274;-52
2021/10/27 03:40:26;;;;;;;48.17;24.73;;;;;;;;;;4431392;32;20291;-53
2021/10/27 03:42:52;;;;;;;44.10;24.67;;;;;;;;;;4434454;32;20707;-54
2021/10/27 03:45:17;;;;;;;51.13;26.53;;;;;;;;;;4435740;32;20291;-52
2021/10/27 03:47:43;;;;;;;50.20;24.97;;;;;;;;;;4435693;32;20375;-53
2021/10/27 03:50:11;;;;;;;64.13;27.33;;;;;;;;;;4435335;32;20666;-53
2021/10/27 03:52:37;;;;;;;52.10;24.83;;;;;;;;;;4436140;32;20549;-53
2021/10/27 03:55:03;;;;;;;54.70;25.93;;;;;;;;;;4435864;32;20322;-54
2021/10/27 03:57:28;;;;;;;58.73;24.80;;;;;;;;;;4434171;32;20689;-52
2021/10/27 03:59:54;;;;;;;59.93;28.83;;;;;;;;;;4433920;32;20708;-52
2021/10/27 04:02:19;;;;;;;62.67;30.47;;;;;;;;;;4432968;32;20323;-53
2021/10/27 04:04:45;;;;;;;78.90;39.33;;;;;;;;;;4433386;32;20707;-53
2021/10/27 04:07:10;;;;;;;89.53;39.77;;;;;;;;;;4434204;32;20221;-53
2021/10/27 04:09:36;;;;;;;85.53;39.43;;;;;;;;;;4435134;32;20299;-55
2021/10/27 04:12:02;;;;;;;78.93;36.00;;;;;;;;;;4433878;32;20238;-53
2021/10/27 04:14:27;;;;;;;89.43;38.10;;;;;;;;;;4435273;32;20370;-55
2021/10/27 04:16:53;;;;;;;76.50;35.77;;;;;;;;;;4435687;32;20308;-53
2021/10/27 04:19:18;;;;;;;78.60;37.70;;;;;;;;;;4435395;32;20303;-52
2021/10/27 04:21:44;;;;;;;74.53;37.23;;;;;;;;;;4435588;32;20273;-51
2021/10/27 04:24:09;;;;;;;79.90;37.47;;;;;;;;;;4434221;32;20325;-54
2021/10/27 04:26:35;;;;;;;71.13;36.53;;;;;;;;;;4433920;32;20225;-51
2021/10/27 04:29:01;;;;;;;79.57;38.40;;;;;;;;;;4430005;32;20751;-54
2021/10/27 04:31:27;;;;;;;81.23;36.73;;;;;;;;;;4432407;32;20241;-52
2021/10/27 04:33:53;;;;;;;63.63;34.30;;;;;;;;;;4433656;32;20632;-53
2021/10/27 04:36:19;;;;;;;67.30;32.10;;;;;;;;;;4432958;32;20233;-53
2021/10/27 04:38:44;;;;;;;82.03;40.77;;;;;;;;;;4432488;32;20714;-53
2021/10/27 04:41:10;;;;;;;155.20;76.73;;;;;;;;;;4433176;32;20237;-52
2021/10/27 04:43:35;;;;;;;96.70;50.27;;;;;;;;;;4432905;32;20655;-54
2021/10/27 04:46:01;;;;;;;77.63;41.77;;;;;;;;;;4432941;32;20674;-54
2021/10/27 04:48:26;;;;;;;72.53;39.47;;;;;;;;;;4433096;32;20301;-53
2021/10/27 04:50:52;;;;;;;80.20;41.40;;;;;;;;;;4435191;32;20284;-55
2021/10/27 04:53:19;;;;;;;91.10;44.70;;;;;;;;;;4435373;32;20669;-52
2021/10/27 04:55:46;;;;;;;91.20;47.03;;;;;;;;;;4434735;32;20256;-52
2021/10/27 04:58:12;;;;;;;109.87;49.93;;;;;;;;;;4435037;32;20515;-51
2021/10/27 05:00:38;;;;;;;107.97;51.53;;;;;;;;;;4435175;32;20679;-55
2021/10/27 05:03:04;;;;;;;89.57;46.43;;;;;;;;;;4434313;32;20299;-53
2021/10/27 05:05:30;;;;;;;91.80;41.10;;;;;;;;;;4435026;32;20554;-52
2021/10/27 05:08:00;;;;;;;96.17;43.67;;;;;;;;;;4434492;32;20249;-54
2021/10/27 05:10:26;;;;;;;103.37;46.37;;;;;;;;;;4434465;32;20312;-54
2021/10/27 05:12:51;;;;;;;103.93;50.43;;;;;;;;;;4434274;32;20317;-53
2021/10/27 05:15:17;;;;;;;110.77;53.70;;;;;;;;;;4434283;32;20355;-53
2021/10/27 05:17:42;;;;;;;102.07;51.97;;;;;;;;;;4434503;32;20312;-53
2021/10/27 05:20:08;;;;;;;104.60;50.10;;;;;;;;;;4434618;32;20275;-54
2021/10/27 05:22:33;;;;;;;101.07;47.13;;;;;;;;;;4433738;32;20807;-53
2021/10/27 05:24:59;;;;;;;103.40;49.67;;;;;;;;;;4434350;32;20374;-53
2021/10/27 05:27:24;;;;;;;89.30;46.93;;;;;;;;;;4434734;32;20224;-52
2021/10/27 05:29:50;;;;;;;132.90;58.20;;;;;;;;;;4434135;32;20405;-52
2021/10/27 05:32:15;;;;;;;140.70;63.90;;;;;;;;;;4434860;32;20225;-54
2021/10/27 05:34:42;;;;;;;171.10;71.13;;;;;;;;;;4434027;32;20338;-55
2021/10/27 05:37:08;;;;;;;170.73;83.00;;;;;;;;;;4433400;32;20276;-53
2021/10/27 05:39:34;;;;;;;192.20;82.70;;;;;;;;;;4434671;32;20284;-55
2021/10/27 05:41:59;;;;;;;168.40;75.90;;;;;;;;;;4432543;32;20263;-54
2021/10/27 05:44:24;;;;;;;174.97;69.83;;;;;;;;;;4431734;32;20693;-53
2021/10/27 05:46:51;;;;;;;167.83;72.67;;;;;;;;;;4432437;32;20367;-54
2021/10/27 05:49:29;;;;;;;126.73;55.77;;;;;;;;;;4431847;32;20233;-53
2021/10/27 05:57:59;;;;;;;138.47;52.90;;;;;;;;;;4432864;32;20239;-53
2021/10/27 06:00:17;;;;;;;114.70;47.80;;;;;;;;;;4432349;32;20274;-52
2021/10/27 06:02:43;;;;;;;103.77;43.47;;;;;;;;;;4433618;32;20303;-54
2021/10/27 06:05:08;;;;;;;87.20;38.87;;;;;;;;;;4433027;32;20359;-53
2021/10/27 06:07:34;;;;;;;89.43;42.30;;;;;;;;;;4433285;32;20264;-53
2021/10/27 06:10:00;;;;;;;93.77;39.07;;;;;;;;;;4433609;32;20292;-54
2021/10/27 06:12:25;;;;;;;82.57;37.27;;;;;;;;;;4430719;32;20228;-53
2021/10/27 06:14:51;;;;;;;70.63;38.70;;;;;;;;;;4432164;32;20272;-52
2021/10/27 06:17:17;;;;;;;71.30;36.83;;;;;;;;;;4433662;32;20339;-53
2021/10/27 06:19:43;;;;;;;84.97;42.17;;;;;;;;;;4433398;32;20355;-53
2021/10/27 06:22:11;;;;;;;94.23;43.70;;;;;;;;;;4431808;32;20262;-53
2021/10/27 06:24:37;;;;;;;85.70;39.40;;;;;;;;;;4433012;32;20296;-53
2021/10/27 06:27:04;;;;;;;102.27;45.60;;;;;;;;;;4433447;32;20505;-53
2021/10/27 06:29:38;;;;;;;102.50;49.37;;;;;;;;;;4432890;32;20627;-54
2021/10/27 06:32:16;;;;;;;100.93;45.90;;;;;;;;;;4433239;32;20699;-53
2021/10/27 06:34:50;;;;;;;111.97;49.07;;;;;;;;;;4431522;32;20241;-54
2021/10/27 06:37:51;;;;;;;87.47;42.63;;;;;;;;;;4433616;32;20608;-53
2021/10/27 06:46:00;;;;;;;98.67;47.57;;;;;;;;;;4432800;32;20247;-54
2021/10/27 06:48:26;;;;;;;134.60;60.73;;;;;;;;;;4433757;32;20573;-53
2021/10/27 06:50:52;;;;;;;108.23;50.37;;;;;;;;;;4433265;32;20670;-53
2021/10/27 06:53:18;;;;;;;104.43;50.77;;;;;;;;;;4426563;32;20235;-54
2021/10/27 06:55:44;;;;;;;99.73;51.10;;;;;;;;;;4432328;32;20232;-53
2021/10/27 06:58:11;;;;;;;109.17;51.83;;;;;;;;;;4432567;32;20303;-52
2021/10/27 07:00:45;;;;;;;109.33;49.53;;;;;;;;;;4430367;32;20588;-53
2021/10/27 07:05:57;;;;;;;106.67;52.97;;;;;;;;;;4432394;32;20618;-54
2021/10/27 07:16:34;;;;;;;137.27;65.23;;;;;;;;;;4432188;32;20259;-53
2021/10/27 07:18:59;;;;;;;114.93;63.60;;;;;;;;;;4425709;32;20284;-53
2021/10/27 07:21:25;;;;;;;120.47;63.87;;;;;;;;;;4437530;32;20747;-54
2021/10/27 07:23:51;;;;;;;117.67;60.60;;;;;;;;;;4437533;32;20309;-53
2021/10/27 07:26:18;;;;;;;108.07;58.93;;;;;;;;;;4437088;32;20717;-53
2021/10/27 07:28:46;;;;;;;110.50;58.83;;;;;;;;;;4436876;32;20264;-53
2021/10/27 07:31:15;;;;;;;115.77;58.90;;;;;;;;;;4437410;32;20335;-53
2021/10/27 07:33:40;;;;;;;107.10;56.57;;;;;;;;;;4433584;32;20238;-53
2021/10/27 07:36:22;;;;;;;111.77;57.73;;;;;;;;;;4437377;32;20248;-53
2021/10/27 07:41:32;;;;;;;126.83;58.90;;;;;;;;;;4436357;32;20334;-54
2021/10/27 07:43:58;;;;;;;108.57;61.07;;;;;;;;;;4429559;32;20756;-54
2021/10/27 07:46:24;;;;;;;101.90;58.20;;;;;;;;;;4435424;32;20270;-53
2021/10/27 07:48:50;;;;;;;107.10;59.47;;;;;;;;;;4434598;32;20406;-53
2021/10/27 07:51:15;;;;;;;103.10;59.20;;;;;;;;;;4434467;32;20232;-53
2021/10/27 07:53:41;;;;;;;112.73;59.50;;;;;;;;;;4436634;32;20293;-53
2021/10/27 07:56:06;;;;;;;106.53;56.33;;;;;;;;;;4436590;32;20291;-53
2021/10/27 07:58:32;;;;;;;84.93;48.20;;;;;;;;;;4434520;32;20322;-55
2021/10/27 08:00:59;;;;;;;82.83;43.67;;;;;;;;;;4434799;32;20292;-54
2021/10/27 08:03:29;;;;;;;69.67;39.00;;;;;;;;;;4436113;32;20604;-54
2021/10/27 08:05:59;;;;;;;53.97;29.47;;;;;;;;;;4437153;32;20235;-53
2021/10/27 08:08:24;;;;;;;42.40;24.07;;;;;;;;;;4437166;32;20235;-53
2021/10/27 08:10:51;;;;;;;43.00;24.30;;;;;;;;;;4431311;32;20328;-53
2021/10/27 08:13:17;;;;;;;41.07;21.23;;;;;;;;;;4433001;32;20209;-52
2021/10/27 08:15:43;;;;;;;51.43;27.57;;;;;;;;;;4434351;32;20296;-53
2021/10/27 08:18:11;;;;;;;34.27;21.13;;;;;;;;;;4435500;32;21120;-53
2021/10/27 08:20:37;;;;;;;37.47;21.87;;;;;;;;;;4435286;32;20403;-53
2021/10/27 08:23:04;;;;;;;49.70;26.73;;;;;;;;;;4432851;32;20300;-52
2021/10/27 08:25:55;;;;;;;80.40;48.67;;;;;;;;;;4436447;32;20209;-53
2021/10/27 08:28:22;;;;;;;39.67;26.57;;;;;;;;;;4431218;32;20300;-54
2021/10/27 08:33:48;;;;;;;31.77;23.00;;;;;;;;;;4421329;32;20216;-54
2021/10/27 08:36:14;;;;;;;38.87;21.70;;;;;;;;;;4428019;32;20246;-54
2021/10/27 08:38:39;;;;;;;35.90;20.33;;;;;;;;;;4432582;32;20301;-55
2021/10/27 08:41:04;;;;;;;35.07;19.97;;;;;;;;;;4432726;32;20209;-53
2021/10/27 08:43:30;;;;;;;37.80;21.93;;;;;;;;;;4434499;32;20272;-53
2021/10/27 08:45:57;;;;;;;42.30;21.10;;;;;;;;;;4431357;32;20292;-53
2021/10/27 08:48:24;;;;;;;28.90;19.20;;;;;;;;;;4434040;32;20642;-53
2021/10/27 08:50:50;;;;;;;26.30;16.80;;;;;;;;;;4432387;32;20375;-53
2021/10/27 08:53:18;;;;;;;28.40;19.47;;;;;;;;;;4434657;32;20531;-53
2021/10/27 08:55:46;;;;;;;29.77;17.23;;;;;;;;;;4438243;32;20308;-54
2021/10/27 08:58:16;;;;;;;28.37;17.93;;;;;;;;;;4431456;32;20358;-55
2021/10/27 09:06:23;;;;;;;24.73;16.67;;;;;;;;;;4433394;32;20329;-53
2021/10/27 09:34:33;;;;;;;35.83;21.70;;;;;;;;;;4433197;32;20228;-53
2021/10/27 10:05:20;;;;;;;18.20;13.80;;;;;;;;;;4424869;32;20235;-53
2021/10/27 10:07:46;;;;;;;21.20;14.07;;;;;;;;;;4425786;32;20389;-53
2021/10/27 10:10:13;;;;;;;25.10;14.47;;;;;;;;;;4428623;32;20298;-53
2021/10/27 10:12:43;;;;;;;73.13;36.47;;;;;;;;;;4432585;32;20625;-52
2021/10/27 10:15:10;;;;;;;23.83;16.13;;;;;;;;;;4432858;32;20278;-52
2021/10/27 10:17:39;;;;;;;24.90;15.13;;;;;;;;;;4433488;32;20588;-53
2021/10/27 10:20:06;;;;;;;68.53;32.23;;;;;;;;;;4433142;32;20636;-53
2021/10/27 10:22:42;;;;;;;24.23;16.00;;;;;;;;;;4433299;32;20291;-52
2021/10/27 10:25:28;;;;;;;23.97;12.77;;;;;;;;;;4432991;32;20265;-52
2021/10/27 10:27:56;;;;;;;77.27;38.73;;;;;;;;;;4433207;32;20295;-53
2021/10/27 10:30:32;;;;;;;32.40;17.03;;;;;;;;;;4432829;32;20610;-53
2021/10/27 10:33:09;;;;;;;29.23;17.50;;;;;;;;;;4420512;32;20259;-53
2021/10/27 10:39:23;;;;;;;408.93;179.07;;;;;;;;;;4432785;32;20264;-53
2021/10/27 10:41:43;;;;;;;33.73;18.33;;;;;;;;;;4429536;32;20248;-52
2021/10/27 11:37:21;;;;;;;14.47;7.20;;;;;;;;;;4404305;32;20267;-52
2021/10/27 11:41:29;;;;;;;8.07;5.97;;;;;;;;;;4429759;32;20517;-52
2021/10/27 11:44:09;;;;;;;11.57;7.47;;;;;;;;;;4426226;32;20530;-52
2021/10/27 11:46:47;;;;;;;9.23;6.23;;;;;;;;;;4431875;32;20773;-52
2021/10/27 11:49:14;;;;;;;15.57;8.57;;;;;;;;;;4429070;32;20221;-53
2021/10/27 11:51:40;;;;;;;10.67;6.73;;;;;;;;;;4432133;32;20363;-53
2021/10/27 11:54:14;;;;;;;10.70;7.43;;;;;;;;;;4426866;32;20347;-53
2021/10/27 11:56:40;;;;;;;9.90;6.60;;;;;;;;;;4430359;32;20227;-53
2021/10/27 11:59:05;;;;;;;10.83;7.37;;;;;;;;;;4427176;32;20329;-54
2021/10/27 12:01:38;;;;;;;9.63;6.30;;;;;;;;;;4431318;32;20652;-52
2021/10/27 12:04:06;;;;;;;6.87;5.40;;;;;;;;;;4432485;32;20739;-53
2021/10/27 12:12:08;;;;;;;15.97;8.93;;;;;;;;;;4434435;32;20220;-53
2021/10/27 12:14:44;;;;;;;108.33;45.87;;;;;;;;;;4426589;32;20625;-52
2021/10/27 12:19:58;;;;;;;7.43;6.13;;;;;;;;;;4425358;32;20327;-52
2021/10/27 12:22:24;;;;;;;22.37;7.40;;;;;;;;;;4432258;32;20327;-53
2021/10/27 12:24:57;;;;;;;28.60;14.87;;;;;;;;;;4432670;32;20386;-53
2021/10/27 12:29:56;;;;;;;18.13;10.60;;;;;;;;;;4433920;32;20268;-53
2021/10/27 12:32:23;;;;;;;10.37;6.87;;;;;;;;;;4432867;32;20293;-53
2021/10/27 12:34:53;;;;;;;13.73;7.90;;;;;;;;;;4426854;32;20297;-53
2021/10/27 12:37:31;;;;;;;12.67;7.93;;;;;;;;;;4432249;32;20422;-51
2021/10/27 12:40:14;;;;;;;15.67;11.27;;;;;;;;;;4428340;32;20260;-53
2021/10/27 12:42:40;;;;;;;14.37;9.97;;;;;;;;;;4431197;32;20699;-52
2021/10/27 12:45:07;;;;;;;14.03;8.47;;;;;;;;;;4432571;32;20296;-53
2021/10/27 12:47:35;;;;;;;16.23;8.63;;;;;;;;;;4432230;32;20240;-52
2021/10/27 12:50:04;;;;;;;11.87;7.90;;;;;;;;;;4431855;32;20254;-53
2021/10/27 12:52:35;;;;;;;13.67;8.57;;;;;;;;;;4434246;32;20236;-52
2021/10/27 12:55:24;;;;;;;20.10;12.00;;;;;;;;;;4433414;32;20288;-52
2021/10/27 12:57:58;;;;;;;12.47;8.60;;;;;;;;;;4430175;32;20374;-52
2021/10/27 13:11:40;;;;;;;10.17;6.50;;;;;;;;;;4426700;32;20213;-52
2021/10/27 13:30:09;;;;;;;12.83;7.67;;;;;;;;;;4433901;32;20257;-52
2021/10/27 13:32:43;;;;;;;12.23;5.70;;;;;;;;;;4434768;32;20294;-53
2021/10/27 13:35:09;;;;;;;11.47;6.77;;;;;;;;;;4433943;32;20242;-53
2021/10/27 13:37:35;;;;;;;10.97;7.43;;;;;;;;;;4433660;32;20220;-53
2021/10/27 13:40:03;;;;;;;11.73;6.83;;;;;;;;;;4433673;32;20364;-54
2021/10/27 14:09:34;;;;;;;21.43;10.80;;;;;;;;;;4425844;32;20198;-53
2021/10/27 14:12:19;;;;;;;13.63;7.70;;;;;;;;;;4429950;32;20264;-53
2021/10/27 15:19:58;;;;;;;32.27;17.07;;;;;;;;;;4431069;32;20404;-53
2021/10/27 15:51:21;;;;;;;71.07;38.63;;;;;;;;;;4431056;32;20238;-52
2021/10/27 15:53:47;;;;;;;61.23;30.87;;;;;;;;;;4433499;32;20264;-52
2021/10/27 15:56:12;;;;;;;55.97;29.80;;;;;;;;;;4433273;32;20287;-54
2021/10/27 15:58:38;;;;;;;63.23;33.27;;;;;;;;;;4434956;32;20655;-53
2021/10/27 16:01:03;;;;;;;70.27;41.17;;;;;;;;;;4430938;32;20236;-53
2021/10/27 16:03:29;;;;;;;80.47;42.13;;;;;;;;;;4433393;32;20225;-53
2021/10/27 16:05:57;;;;;;;66.03;39.57;;;;;;;;;;4430872;32;20287;-53
2021/10/27 16:08:25;;;;;;;77.70;43.03;;;;;;;;;;4420370;32;20755;-52
2021/10/27 16:10:51;;;;;;;77.53;42.43;;;;;;;;;;4429096;32;20246;-53
2021/10/27 16:13:17;;;;;;;82.27;46.47;;;;;;;;;;4431212;32;20830;-53
2021/10/27 16:15:55;;;;;;;93.03;50.57;;;;;;;;;;4432315;32;20303;-55
2021/10/27 16:18:20;;;;;;;90.10;50.97;;;;;;;;;;4434986;32;20296;-54
2021/10/27 16:20:46;;;;;;;77.60;43.00;;;;;;;;;;4433877;32;20359;-53
2021/10/27 16:23:14;;;;;;;73.03;41.50;;;;;;;;;;4434600;32;20352;-54
2021/10/27 16:25:40;;;;;;;77.87;40.57;;;;;;;;;;4435312;32;20240;-54
2021/10/27 16:28:06;;;;;;;62.60;34.13;;;;;;;;;;4433226;32;20251;-54
2021/10/27 16:30:32;;;;;;;55.03;31.80;;;;;;;;;;4435150;32;20735;-55
2021/10/27 16:32:58;;;;;;;46.07;24.90;;;;;;;;;;4433877;32;20581;-54
2021/10/27 16:35:24;;;;;;;36.23;24.30;;;;;;;;;;4432136;32;20316;-55
2021/10/27 16:37:50;;;;;;;39.37;21.10;;;;;;;;;;4433843;32;20247;-53
2021/10/27 16:40:16;;;;;;;31.63;18.33;;;;;;;;;;4433434;32;20690;-54
2021/10/27 16:42:41;;;;;;;39.50;22.80;;;;;;;;;;4434112;32;20205;-54
2021/10/27 16:45:09;;;;;;;35.97;22.50;;;;;;;;;;4433781;32;20581;-54
2021/10/27 16:47:35;;;;;;;37.27;20.67;;;;;;;;;;4434596;32;20255;-54
2021/10/27 16:50:00;;;;;;;34.40;19.13;;;;;;;;;;4433378;32;20291;-54
2021/10/27 16:52:26;;;;;;;33.10;20.57;;;;;;;;;;4434425;32;20577;-55
2021/10/27 16:54:53;;;;;;;26.50;16.10;;;;;;;;;;4433660;32;20276;-55
2021/10/27 16:57:19;;;;;;;28.27;16.07;;;;;;;;;;4434105;32;20264;-54
2021/10/27 16:59:45;;;;;;;22.60;14.07;;;;;;;;;;4434259;32;20845;-55
2021/10/27 17:02:11;;;;;;;29.03;13.23;;;;;;;;;;4433166;32;20229;-53
2021/10/27 17:04:37;;;;;;;19.93;12.83;;;;;;;;;;4431625;32;20288;-54
2021/10/27 17:07:02;;;;;;;17.93;11.83;;;;;;;;;;4426495;32;20302;-53
2021/10/27 17:09:28;;;;;;;34.80;21.97;;;;;;;;;;4434572;32;20292;-56
2021/10/27 17:11:54;;;;;;;59.07;31.60;;;;;;;;;;4434458;32;20345;-53
2021/10/27 17:14:20;;;;;;;45.97;26.67;;;;;;;;;;4432982;32;20332;-53
2021/10/27 17:16:46;;;;;;;46.17;26.13;;;;;;;;;;4434103;32;20224;-53
2021/10/27 17:19:12;;;;;;;51.83;27.87;;;;;;;;;;4430524;32;20247;-53
2021/10/27 17:21:38;;;;;;;51.33;26.83;;;;;;;;;;4428687;32;20249;-53
2021/10/27 17:24:05;;;;;;;61.17;29.67;;;;;;;;;;4433053;32;20311;-59
2021/10/27 17:26:31;;;;;;;47.47;26.23;;;;;;;;;;4431797;32;20228;-53
2021/10/27 17:28:57;;;;;;;48.77;28.07;;;;;;;;;;4432905;32;20280;-54
2021/10/27 17:31:23;;;;;;;47.17;25.73;;;;;;;;;;4433357;32;20414;-53
2021/10/27 17:33:49;;;;;;;56.40;29.57;;;;;;;;;;4433887;32;20322;-55
2021/10/27 17:36:15;;;;;;;59.60;29.07;;;;;;;;;;4433155;32;20212;-53
2021/10/27 17:38:42;;;;;;;50.60;28.90;;;;;;;;;;4433407;32;20777;-54
2021/10/27 17:41:08;;;;;;;46.77;26.87;;;;;;;;;;4433997;32;20228;-54
2021/10/27 17:43:34;;;;;;;42.47;25.73;;;;;;;;;;4433141;32;20375;-55
2021/10/27 17:46:04;;;;;;;38.73;23.47;;;;;;;;;;4433201;32;20287;-53
2021/10/27 17:48:45;;;;;;;41.37;22.20;;;;;;;;;;4433958;32;20299;-53
2021/10/27 17:51:28;;;;;;;28.47;18.67;;;;;;;;;;4423538;32;20371;-54
2021/10/27 17:59:22;;;;;;;49.43;25.63;;;;;;;;;;4431783;32;20250;-53
2021/10/27 18:01:49;;;;;;;50.77;29.53;;;;;;;;;;4433295;32;20646;-53
2021/10/27 18:04:14;;;;;;;47.17;28.17;;;;;;;;;;4433398;32;20883;-53
2021/10/27 18:06:40;;;;;;;47.77;26.93;;;;;;;;;;4433501;32;20244;-52
2021/10/27 18:09:11;;;;;;;53.20;29.63;;;;;;;;;;4433618;32;20346;-53
2021/10/27 18:11:38;;;;;;;51.07;28.93;;;;;;;;;;4433502;32;20584;-53
2021/10/27 18:14:09;;;;;;;52.93;26.53;;;;;;;;;;4433542;32;20235;-53
2021/10/27 18:16:49;;;;;;;51.37;25.87;;;;;;;;;;4433560;32;20281;-53
2021/10/27 18:19:25;;;;;;;40.10;23.77;;;;;;;;;;4432402;32;20224;-53
2021/10/27 18:21:54;;;;;;;46.57;24.63;;;;;;;;;;4431476;32;20260;-53
2021/10/27 18:24:33;;;;;;;39.03;24.10;;;;;;;;;;4432821;32;20245;-53
2021/10/27 18:40:54;;;;;;;36.80;18.37;;;;;;;;;;4432040;32;20211;-53
2021/10/27 18:43:30;;;;;;;34.83;18.80;;;;;;;;;;4431711;32;20300;-53
2021/10/27 18:46:00;;;;;;;32.27;16.80;;;;;;;;;;4431352;32;20213;-53
2021/10/27 18:48:29;;;;;;;22.77;15.73;;;;;;;;;;4430789;32;20329;-53
2021/10/27 18:51:06;;;;;;;24.37;15.23;;;;;;;;;;4433044;32;20216;-53
2021/10/27 19:11:42;;;;;;;27.17;14.80;;;;;;;;;;4432124;32;20255;-53
2021/10/27 19:14:18;;;;;;;28.77;17.90;;;;;;;;;;4432020;32;20220;-53
2021/10/27 19:16:45;;;;;;;30.07;16.60;;;;;;;;;;4433147;32;20322;-53
2021/10/27 19:19:12;;;;;;;38.27;18.53;;;;;;;;;;4432280;32;20737;-53
2021/10/27 19:21:39;;;;;;;32.20;17.10;;;;;;;;;;4431981;32;20260;-53
2021/10/27 19:24:08;;;;;;;29.30;17.27;;;;;;;;;;4433107;32;20205;-54
2021/10/27 19:26:39;;;;;;;30.73;16.43;;;;;;;;;;4432741;32;20856;-53
2021/10/27 19:29:10;;;;;;;29.10;15.33;;;;;;;;;;4427781;32;20296;-53
2021/10/27 20:05:20;;;;;;;21.80;13.60;;;;;;;;;;4432416;32;20613;-53
2021/10/27 20:10:37;;;;;;;23.70;11.93;;;;;;;;;;4430066;32;20338;-52
2021/10/27 20:26:54;;;;;;;41.80;23.30;;;;;;;;;;4432483;32;20268;-53
2021/10/27 20:51:09;;;;;;;26.90;16.13;;;;;;;;;;4434410;32;20307;-53
2021/10/27 20:53:35;;;;;;;27.37;15.07;;;;;;;;;;4433616;32;20217;-53
2021/10/27 20:56:03;;;;;;;26.20;15.33;;;;;;;;;;4434323;32;20280;-52
2021/10/27 21:14:08;;;;;;;38.63;15.93;;;;;;;;;;4428123;32;20719;-52
2021/10/27 21:16:34;;;;;;;33.10;16.20;;;;;;;;;;4433615;32;20461;-53
2021/10/27 21:19:01;;;;;;;31.63;16.40;;;;;;;;;;4428180;32;20313;-54
2021/10/27 21:21:28;;;;;;;61.33;28.93;;;;;;;;;;4431716;32;20610;-53
2021/10/27 21:23:53;;;;;;;65.13;30.50;;;;;;;;;;4421564;32;20319;-54
2021/10/27 21:26:21;;;;;;;58.27;26.20;;;;;;;;;;4432979;32;20324;-53
2021/10/27 21:29:07;;;;;;;78.30;38.77;;;;;;;;;;4427489;32;20208;-53